createdAt,value
2023-03-03T00:00:59.938Z,377.75
2023-03-03T00:03:27.860Z,382.33
2023-03-03T00:05:54.624Z,369.50
2023-03-03T00:08:21.139Z,364.90
2023-03-03T00:10:48.095Z,360.20
2023-03-03T00:13:14.725Z,359.95
2023-03-03T00:15:42.219Z,346.65
2023-03-03T00:18:09.456Z,341.30
2023-03-03T00:20:36.043Z,335.13
2023-03-03T00:23:03.551Z,333.48
2023-03-03T00:25:30.623Z,323.27
2023-03-03T00:27:58.070Z,315.25
2023-03-03T00:30:25.493Z,313.40
2023-03-03T00:32:52.106Z,301.40
2023-03-03T00:35:19.512Z,303.67
2023-03-03T00:37:46.948Z,297.98
2023-03-03T00:40:14.489Z,297.35
2023-03-03T00:42:42.237Z,285.02
2023-03-03T00:45:11.006Z,281.30
2023-03-03T00:47:38.149Z,278.08
2023-03-03T00:50:05.922Z,270.27
2023-03-03T00:52:33.406Z,271.52
2023-03-03T00:55:01.038Z,261.15
2023-03-03T00:57:28.737Z,255.50
2023-03-03T00:59:56.076Z,247.95
2023-03-03T01:02:23.037Z,244.18
2023-03-03T01:04:49.378Z,248.30
2023-03-03T01:07:16.037Z,235.15
2023-03-03T01:09:42.422Z,233.13
2023-03-03T01:12:09.377Z,231.90
2023-03-03T01:14:35.752Z,226.45
2023-03-03T01:17:02.301Z,226.45
2023-03-03T01:19:28.936Z,214.20
2023-03-03T01:21:55.383Z,213.55
2023-03-03T01:24:22.211Z,206.70
2023-03-03T01:26:48.624Z,204.27
2023-03-03T01:29:14.939Z,199.57
2023-03-03T01:31:41.629Z,201.98
2023-03-03T01:34:08.066Z,192.32
2023-03-03T01:36:34.604Z,186.15
2023-03-03T01:39:01.396Z,184.85
2023-03-03T01:41:27.976Z,175.13
2023-03-03T01:43:54.518Z,175.55
2023-03-03T01:46:20.942Z,170.43
2023-03-03T01:48:47.843Z,168.43
2023-03-03T01:51:14.213Z,167.60
2023-03-03T01:53:40.725Z,168.10
2023-03-03T01:56:07.378Z,159.35
2023-03-03T01:58:33.731Z,150.85
2023-03-03T02:01:00.158Z,152.93
2023-03-03T02:03:27.609Z,145.95
2023-03-03T02:05:54.037Z,147.85
2023-03-03T02:08:21.288Z,147.77
2023-03-03T02:10:48.124Z,141.48
2023-03-03T02:13:14.837Z,137.18
2023-03-03T02:15:41.148Z,138.13
2023-03-03T02:18:07.840Z,137.25
2023-03-03T02:20:34.208Z,136.30
2023-03-03T02:23:00.659Z,134.32
2023-03-03T02:25:27.149Z,130.07
2023-03-03T02:27:54.090Z,127.47
2023-03-03T02:30:20.441Z,127.35
2023-03-03T02:32:46.926Z,122.70
2023-03-03T02:35:13.387Z,122.30
2023-03-03T02:37:39.861Z,119.82
2023-03-03T02:40:06.263Z,119.95
2023-03-03T02:42:33.039Z,117.38
2023-03-03T02:44:59.407Z,111.65
2023-03-03T02:47:25.776Z,112.82
2023-03-03T02:49:52.143Z,111.65
2023-03-03T02:52:18.581Z,109.45
2023-03-03T02:54:45.440Z,107.68
2023-03-03T02:57:11.965Z,107.05
2023-03-03T02:59:38.437Z,104.07
2023-03-03T03:02:04.793Z,102.15
2023-03-03T03:04:31.191Z,103.15
2023-03-03T03:06:57.896Z,98.57
2023-03-03T03:09:24.466Z,96.93
2023-03-03T03:11:51.050Z,96.28
2023-03-03T03:14:17.458Z,96.07
2023-03-03T03:16:43.932Z,94.60
2023-03-03T03:19:10.428Z,92.03
2023-03-03T03:21:37.121Z,92.25
2023-03-03T03:24:03.565Z,89.20
2023-03-03T03:26:29.906Z,86.28
2023-03-03T03:28:56.447Z,84.72
2023-03-03T03:31:22.768Z,85.50
2023-03-03T03:33:49.170Z,81.63
2023-03-03T03:36:16.925Z,82.88
2023-03-03T03:38:43.543Z,80.18
2023-03-03T03:41:10.271Z,80.65
2023-03-03T03:43:36.741Z,77.70
2023-03-03T03:46:03.449Z,75.38
2023-03-03T03:48:29.971Z,77.43
2023-03-03T03:50:56.414Z,76.65
2023-03-03T03:53:22.745Z,76.18
2023-03-03T03:55:49.370Z,73.47
2023-03-03T03:58:15.788Z,70.00
2023-03-03T04:00:42.311Z,70.68
2023-03-03T04:03:09.291Z,67.20
2023-03-03T04:05:36.133Z,65.75
2023-03-03T04:08:02.596Z,67.65
2023-03-03T04:10:29.538Z,66.15
2023-03-03T04:12:56.314Z,64.63
2023-03-03T04:15:22.740Z,64.47
2023-03-03T04:17:49.094Z,61.95
2023-03-03T04:20:15.534Z,62.47
2023-03-03T04:22:42.018Z,61.78
2023-03-03T04:25:09.297Z,61.38
2023-03-03T04:27:35.740Z,59.08
2023-03-03T04:30:02.594Z,57.63
2023-03-03T04:32:29.059Z,58.95
2023-03-03T04:35:05.596Z,57.40
2023-03-03T04:37:33.968Z,59.17
2023-03-03T04:40:00.518Z,57.40
2023-03-03T04:42:27.347Z,55.53
2023-03-03T04:44:54.025Z,53.38
2023-03-03T04:47:20.409Z,53.13
2023-03-03T04:49:46.695Z,49.85
2023-03-03T04:52:13.043Z,52.55
2023-03-03T04:54:39.683Z,50.33
2023-03-03T04:57:06.144Z,49.80
2023-03-03T04:59:32.517Z,51.60
2023-03-03T05:01:58.914Z,48.65
2023-03-03T05:04:26.037Z,47.97
2023-03-03T05:06:52.670Z,49.72
2023-03-03T05:09:19.049Z,47.40
2023-03-03T05:11:45.739Z,47.70
2023-03-03T05:14:12.112Z,44.85
2023-03-03T05:16:38.492Z,45.78
2023-03-03T05:19:04.833Z,46.10
2023-03-03T05:21:31.195Z,45.53
2023-03-03T05:23:57.944Z,44.80
2023-03-03T05:26:24.327Z,42.72
2023-03-03T05:28:50.968Z,43.00
2023-03-03T05:31:17.729Z,42.85
2023-03-03T05:33:44.190Z,41.10
2023-03-03T05:36:10.575Z,43.17
2023-03-03T05:38:37.017Z,41.15
2023-03-03T05:41:03.648Z,41.53
2023-03-03T05:43:30.080Z,41.20
2023-03-03T05:45:56.399Z,40.47
2023-03-03T05:48:23.192Z,40.70
2023-03-03T05:50:49.607Z,39.40
2023-03-03T05:53:16.011Z,37.53
2023-03-03T05:55:42.691Z,38.30
2023-03-03T05:58:09.521Z,38.53
2023-03-03T06:00:35.979Z,36.45
2023-03-03T06:03:02.446Z,36.97
2023-03-03T06:05:28.836Z,36.67
2023-03-03T06:07:55.170Z,35.97
2023-03-03T06:10:21.527Z,36.33
2023-03-03T06:12:47.947Z,36.30
2023-03-03T06:15:14.279Z,34.92
2023-03-03T06:17:40.715Z,35.70
2023-03-03T06:20:07.084Z,36.38
2023-03-03T06:22:33.501Z,34.50
2023-03-03T06:24:59.886Z,32.65
2023-03-03T06:27:26.436Z,33.45
2023-03-03T06:29:53.456Z,33.70
2023-03-03T06:32:19.845Z,33.70
2023-03-03T06:34:46.703Z,31.90
2023-03-03T06:37:13.107Z,31.35
2023-03-03T06:39:40.043Z,31.48
2023-03-03T06:42:06.427Z,31.52
2023-03-03T06:44:32.827Z,32.78
2023-03-03T06:46:59.318Z,30.05
2023-03-03T06:49:25.667Z,29.48
2023-03-03T06:51:52.069Z,30.23
2023-03-03T06:54:19.165Z,28.58
2023-03-03T06:56:45.422Z,29.00
2023-03-03T06:59:11.986Z,29.95
2023-03-03T07:01:38.391Z,29.88
2023-03-03T07:04:04.815Z,28.20
2023-03-03T07:06:31.271Z,29.13
2023-03-03T07:08:58.153Z,27.52
2023-03-03T07:11:24.582Z,27.88
2023-03-03T07:13:51.779Z,27.08
2023-03-03T07:16:18.589Z,26.67
2023-03-03T07:18:45.006Z,27.80
2023-03-03T07:21:11.323Z,27.30
2023-03-03T07:23:37.783Z,27.55
2023-03-03T07:26:04.254Z,27.67
2023-03-03T07:28:30.635Z,34.05
2023-03-03T07:30:57.386Z,30.60
2023-03-03T07:33:23.744Z,32.13
2023-03-03T07:35:50.144Z,34.60
2023-03-03T07:38:16.529Z,31.80
2023-03-03T07:40:43.052Z,32.53
2023-03-03T07:43:09.426Z,31.95
2023-03-03T07:45:36.027Z,31.20
2023-03-03T07:48:02.489Z,34.45
2023-03-03T07:50:28.906Z,31.60
2023-03-03T07:52:55.314Z,30.75
2023-03-03T07:55:21.672Z,30.58
2023-03-03T07:57:48.108Z,30.48
2023-03-03T08:00:14.853Z,30.83
2023-03-03T08:02:41.301Z,29.10
2023-03-03T08:05:08.259Z,30.90
2023-03-03T08:07:35.033Z,29.92
2023-03-03T08:10:01.412Z,28.92
2023-03-03T08:12:28.098Z,30.38
2023-03-03T08:14:54.455Z,27.92
2023-03-03T08:17:20.904Z,28.95
2023-03-03T08:19:47.493Z,28.08
2023-03-03T08:22:13.962Z,28.95
2023-03-03T08:24:40.420Z,27.45
2023-03-03T08:27:07.130Z,28.15
2023-03-03T08:29:33.443Z,29.02
2023-03-03T08:32:00.101Z,28.75
2023-03-03T08:34:26.725Z,28.50
2023-03-03T08:36:53.068Z,29.05
2023-03-03T08:39:19.764Z,29.58
2023-03-03T08:41:46.323Z,31.25
2023-03-03T08:44:13.041Z,32.08
2023-03-03T08:46:39.433Z,30.80
2023-03-03T08:49:05.944Z,31.33
2023-03-03T08:51:32.307Z,31.08
2023-03-03T08:53:58.671Z,30.08
2023-03-03T08:56:25.312Z,31.25
2023-03-03T08:59:02.288Z,31.63
2023-03-03T09:01:29.141Z,30.15
2023-03-03T09:03:55.600Z,30.77
2023-03-03T09:06:21.984Z,32.03
2023-03-03T09:08:48.518Z,29.60
2023-03-03T09:11:15.188Z,31.42
2023-03-03T09:13:41.919Z,29.90
2023-03-03T09:16:08.616Z,30.35
2023-03-03T09:18:35.780Z,30.65
2023-03-03T09:21:02.217Z,30.42
2023-03-03T09:23:28.589Z,29.27
2023-03-03T09:25:55.113Z,29.33
2023-03-03T09:28:21.505Z,30.02
2023-03-03T09:30:48.035Z,28.85
2023-03-03T09:33:14.480Z,29.10
2023-03-03T09:35:41.396Z,30.63
2023-03-03T09:38:08.028Z,29.08
2023-03-03T09:40:34.660Z,29.17
2023-03-03T09:43:01.206Z,28.20
2023-03-03T09:45:27.939Z,28.08
2023-03-03T09:47:54.640Z,28.33
2023-03-03T09:50:21.803Z,29.40
2023-03-03T09:52:48.192Z,27.75
2023-03-03T09:55:14.626Z,28.00
2023-03-03T09:57:41.183Z,27.27
2023-03-03T10:00:07.890Z,27.45
2023-03-03T10:02:34.349Z,26.77
2023-03-03T10:05:01.534Z,26.95
2023-03-03T10:07:28.287Z,26.75
2023-03-03T10:09:55.496Z,27.27
2023-03-03T10:12:21.897Z,26.77
2023-03-03T10:14:48.498Z,25.92
2023-03-03T10:17:14.856Z,25.58
2023-03-03T10:19:41.266Z,26.15
2023-03-03T10:22:07.655Z,24.85
2023-03-03T10:24:34.042Z,25.83
2023-03-03T10:27:13.164Z,24.70
2023-03-03T10:29:40.733Z,23.92
2023-03-03T10:32:07.168Z,25.55
2023-03-03T10:34:33.675Z,23.98
2023-03-03T10:37:00.095Z,25.38
2023-03-03T10:39:27.169Z,24.60
2023-03-03T10:41:53.508Z,23.58
2023-03-03T10:44:19.917Z,24.40
2023-03-03T10:46:46.723Z,23.50
2023-03-03T10:49:13.456Z,23.92
2023-03-03T10:51:40.104Z,23.85
2023-03-03T10:54:06.536Z,23.23
2023-03-03T10:56:40.302Z,24.05
2023-03-03T10:59:17.114Z,23.45
2023-03-03T11:01:43.542Z,24.10
2023-03-03T11:04:10.036Z,23.23
2023-03-03T11:06:37.506Z,22.63
2023-03-03T11:09:04.324Z,22.50
2023-03-03T11:11:30.732Z,22.75
2023-03-03T11:13:57.777Z,22.65
2023-03-03T11:16:24.272Z,22.95
2023-03-03T11:18:50.675Z,22.20
2023-03-03T11:21:17.575Z,23.23
2023-03-03T11:23:44.089Z,22.30
2023-03-03T11:26:10.824Z,22.33
2023-03-03T11:28:37.850Z,22.90
2023-03-03T11:31:04.777Z,22.27
2023-03-03T11:33:31.284Z,22.23
2023-03-03T11:35:57.705Z,19.98
2023-03-03T11:38:24.131Z,22.80
2023-03-03T11:40:50.939Z,21.55
2023-03-03T11:43:30.062Z,21.50
2023-03-03T11:46:02.062Z,21.83
2023-03-03T11:48:28.559Z,20.40
2023-03-03T11:50:55.110Z,22.13
2023-03-03T11:53:21.928Z,21.95
2023-03-03T11:55:48.323Z,21.70
2023-03-03T11:58:14.734Z,21.05
2023-03-03T12:00:41.126Z,19.88
2023-03-03T12:03:07.580Z,21.00
2023-03-03T12:05:34.171Z,21.77
2023-03-03T12:08:00.986Z,21.40
2023-03-03T12:10:27.300Z,20.60
2023-03-03T12:12:53.608Z,20.92
2023-03-03T12:15:20.170Z,19.88
2023-03-03T12:17:49.469Z,20.85
2023-03-03T12:20:16.845Z,21.40
2023-03-03T12:22:43.337Z,20.45
2023-03-03T12:25:09.953Z,20.60
2023-03-03T12:27:36.361Z,19.75
2023-03-03T12:30:05.157Z,20.38
2023-03-03T12:32:31.975Z,21.27
2023-03-03T12:34:58.368Z,19.17
2023-03-03T12:37:25.449Z,21.25
2023-03-03T12:39:52.317Z,20.20
2023-03-03T12:42:18.714Z,21.25
2023-03-03T12:44:45.188Z,19.08
2023-03-03T12:47:11.578Z,19.15
2023-03-03T12:49:44.126Z,20.75
2023-03-03T12:52:11.564Z,19.67
2023-03-03T12:54:37.970Z,19.75
2023-03-03T12:57:04.500Z,18.80
2023-03-03T12:59:30.920Z,19.15
2023-03-03T13:01:57.382Z,19.33
2023-03-03T13:04:23.914Z,19.48
2023-03-03T13:06:50.958Z,19.98
2023-03-03T13:09:17.788Z,19.27
2023-03-03T13:11:44.123Z,19.45
2023-03-03T13:14:10.614Z,19.27
2023-03-03T13:16:41.612Z,19.75
2023-03-03T13:19:08.322Z,19.08
2023-03-03T13:21:35.388Z,18.88
2023-03-03T13:24:01.722Z,19.73
2023-03-03T13:26:30.363Z,19.50
2023-03-03T13:28:58.080Z,18.67
2023-03-03T13:31:24.902Z,19.10
2023-03-03T13:33:52.082Z,19.60
2023-03-03T13:36:18.589Z,19.15
2023-03-03T13:38:45.075Z,19.23
2023-03-03T13:41:11.490Z,18.25
2023-03-03T13:43:38.079Z,18.92
2023-03-03T13:46:04.502Z,18.60
2023-03-03T13:48:31.243Z,18.48
2023-03-03T13:50:57.646Z,19.65
2023-03-03T13:53:24.429Z,17.58
2023-03-03T13:55:50.803Z,19.42
2023-03-03T13:58:17.170Z,18.67
2023-03-03T14:00:44.177Z,18.13
2023-03-03T14:03:10.807Z,19.83
2023-03-03T14:05:37.161Z,20.25
2023-03-03T14:08:03.589Z,21.45
2023-03-03T14:10:30.008Z,21.67
2023-03-03T14:12:56.406Z,21.77
2023-03-03T14:15:22.775Z,21.67
2023-03-03T14:17:49.240Z,20.85
2023-03-03T14:20:15.644Z,21.80
2023-03-03T14:22:42.054Z,23.27
2023-03-03T14:25:08.533Z,22.80
2023-03-03T14:27:35.638Z,22.40
2023-03-03T14:30:02.443Z,21.75
2023-03-03T14:32:44.448Z,21.30
2023-03-03T14:35:11.484Z,21.83
2023-03-03T14:37:38.069Z,22.98
2023-03-03T14:40:04.444Z,21.50
2023-03-03T14:42:31.529Z,22.13
2023-03-03T14:44:58.487Z,22.10
2023-03-03T14:47:25.050Z,21.63
2023-03-03T14:49:51.589Z,20.40
2023-03-03T14:52:18.032Z,20.58
2023-03-03T14:54:44.806Z,22.00
2023-03-03T14:57:11.265Z,21.95
2023-03-03T14:59:37.688Z,22.30
2023-03-03T15:02:04.119Z,23.15
2023-03-03T15:04:31.209Z,22.05
2023-03-03T15:06:57.733Z,22.48
2023-03-03T15:09:24.106Z,22.33
2023-03-03T15:11:50.516Z,22.50
2023-03-03T15:14:16.999Z,22.67
2023-03-03T15:16:43.452Z,22.10
2023-03-03T15:19:09.800Z,22.42
2023-03-03T15:21:36.203Z,20.92
2023-03-03T15:24:02.634Z,21.80
2023-03-03T15:26:29.519Z,20.55
2023-03-03T15:28:56.348Z,22.02
2023-03-03T15:31:22.784Z,19.85
2023-03-03T15:33:49.505Z,20.75
2023-03-03T15:36:15.974Z,19.65
2023-03-03T15:38:42.331Z,20.52
2023-03-03T15:41:08.746Z,20.95
2023-03-03T15:43:35.612Z,19.88
2023-03-03T15:46:02.329Z,20.55
2023-03-03T15:48:29.249Z,19.30
2023-03-03T15:50:56.070Z,20.90
2023-03-03T15:53:22.438Z,19.83
2023-03-03T15:55:49.591Z,19.60
2023-03-03T15:58:16.865Z,19.35
2023-03-03T16:00:43.291Z,17.88
2023-03-03T16:03:09.696Z,19.17
2023-03-03T16:05:36.082Z,19.75
2023-03-03T16:08:02.533Z,18.98
2023-03-03T16:10:29.370Z,18.42
2023-03-03T16:12:55.753Z,17.58
2023-03-03T16:15:22.700Z,19.08
2023-03-03T16:17:49.235Z,18.50
2023-03-03T16:20:15.551Z,17.77
2023-03-03T16:22:42.016Z,18.65
2023-03-03T16:25:08.432Z,18.63
2023-03-03T16:27:35.270Z,18.58
2023-03-03T16:30:01.683Z,17.92
2023-03-03T16:32:28.056Z,17.85
2023-03-03T16:34:55.201Z,18.33
2023-03-03T16:37:21.621Z,17.65
2023-03-03T16:39:47.956Z,18.75
2023-03-03T16:42:14.262Z,17.90
2023-03-03T16:44:40.639Z,17.77
2023-03-03T16:47:07.026Z,17.88
2023-03-03T16:49:33.766Z,17.70
2023-03-03T16:52:00.150Z,16.88
2023-03-03T16:54:26.575Z,17.77
2023-03-03T16:56:53.027Z,17.95
2023-03-03T16:59:19.464Z,18.40
2023-03-03T17:01:45.871Z,16.88
2023-03-03T17:04:15.234Z,16.73
2023-03-03T17:06:41.776Z,17.55
2023-03-03T17:09:08.194Z,16.85
2023-03-03T17:11:34.592Z,16.63
2023-03-03T17:14:01.275Z,17.33
2023-03-03T17:16:27.733Z,16.17
2023-03-03T17:18:54.074Z,16.92
2023-03-03T17:21:20.617Z,17.40
2023-03-03T17:23:47.225Z,15.80
2023-03-03T17:26:13.909Z,16.00
2023-03-03T17:28:40.516Z,17.70
2023-03-03T17:31:07.120Z,16.85
2023-03-03T17:33:33.532Z,16.90
2023-03-03T17:36:00.425Z,15.50
2023-03-03T17:38:27.585Z,15.23
2023-03-03T17:40:54.852Z,16.85
2023-03-03T17:43:21.899Z,15.93
2023-03-03T17:45:48.519Z,16.13
2023-03-03T17:48:15.004Z,16.02
2023-03-03T17:50:41.388Z,14.43
2023-03-03T17:53:08.325Z,16.65
2023-03-03T17:55:34.706Z,15.32
2023-03-03T17:58:01.479Z,15.57
2023-03-03T18:00:27.978Z,14.05
2023-03-03T18:02:54.405Z,15.05
2023-03-03T18:05:21.069Z,14.77
2023-03-03T18:07:47.514Z,14.32
2023-03-03T18:10:13.954Z,14.18
2023-03-03T18:12:40.424Z,14.95
2023-03-03T18:15:07.514Z,14.10
2023-03-03T18:17:34.337Z,14.98
2023-03-03T18:20:00.744Z,15.32
2023-03-03T18:22:28.004Z,14.25
2023-03-03T18:24:54.378Z,13.57
2023-03-03T18:27:21.368Z,13.63
2023-03-03T18:29:47.869Z,14.30
2023-03-03T18:32:14.301Z,13.57
2023-03-03T18:34:40.712Z,13.60
2023-03-03T18:37:08.017Z,13.95
2023-03-03T18:39:34.858Z,13.60
2023-03-03T18:42:01.874Z,14.48
2023-03-03T18:44:28.253Z,13.98
2023-03-03T18:46:54.717Z,14.13
2023-03-03T18:49:21.720Z,14.88
2023-03-03T18:51:48.348Z,13.70
2023-03-03T18:54:14.731Z,12.65
2023-03-03T18:56:41.138Z,14.98
2023-03-03T18:59:07.843Z,13.30
2023-03-03T19:01:34.247Z,13.05
2023-03-03T19:04:00.677Z,12.80
2023-03-03T19:06:27.796Z,13.25
2023-03-03T19:08:54.756Z,13.27
2023-03-03T19:11:21.650Z,13.32
2023-03-03T19:13:48.034Z,12.90
2023-03-03T19:16:14.844Z,13.40
2023-03-03T19:18:41.329Z,12.85
2023-03-03T19:21:08.018Z,13.23
2023-03-03T19:23:34.838Z,12.50
2023-03-03T19:26:01.637Z,12.70
2023-03-03T19:28:28.135Z,12.98
2023-03-03T19:30:54.667Z,12.55
2023-03-03T19:33:21.312Z,13.32
2023-03-03T19:35:48.260Z,12.85
2023-03-03T19:38:14.730Z,11.55
2023-03-03T19:40:41.140Z,12.48
2023-03-03T19:43:08.345Z,12.95
2023-03-03T19:45:34.941Z,12.32
2023-03-03T19:48:01.384Z,13.15
2023-03-03T19:50:28.284Z,12.68
2023-03-03T19:52:55.139Z,11.77
2023-03-03T19:55:21.911Z,11.30
2023-03-03T19:57:49.048Z,12.52
2023-03-03T20:00:15.339Z,12.15
2023-03-03T20:02:41.740Z,11.90
2023-03-03T20:05:08.347Z,13.45
2023-03-03T20:07:34.933Z,11.85
2023-03-03T20:10:01.348Z,11.38
2023-03-03T20:12:28.767Z,12.20
2023-03-03T20:14:55.393Z,12.13
2023-03-03T20:17:22.082Z,11.60
2023-03-03T20:19:48.712Z,11.20
2023-03-03T20:22:15.408Z,11.77
2023-03-03T20:24:41.820Z,12.02
2023-03-03T20:27:08.186Z,12.13
2023-03-03T20:29:34.658Z,12.13
2023-03-03T20:32:01.696Z,12.35
2023-03-03T20:34:28.351Z,12.68
2023-03-03T20:36:55.348Z,12.38
2023-03-03T20:39:21.694Z,11.00
2023-03-03T20:41:48.244Z,11.65
2023-03-03T20:44:14.698Z,10.38
2023-03-03T20:46:41.022Z,11.48
2023-03-03T20:49:07.380Z,11.82
2023-03-03T20:51:34.078Z,11.60
2023-03-03T20:54:00.426Z,12.20
2023-03-03T20:56:27.906Z,11.48
2023-03-03T20:58:55.386Z,12.13
2023-03-03T21:01:22.168Z,11.02
2023-03-03T21:03:48.706Z,12.05
2023-03-03T21:06:15.284Z,11.40
2023-03-03T21:08:41.702Z,12.20
2023-03-03T21:11:08.194Z,13.32
2023-03-03T21:13:34.669Z,11.50
2023-03-03T21:16:01.183Z,11.65
2023-03-03T21:18:28.178Z,12.20
2023-03-03T21:20:54.497Z,11.68
2023-03-03T21:23:21.328Z,12.25
2023-03-03T21:25:48.275Z,12.38
2023-03-03T21:28:15.517Z,12.52
2023-03-03T21:30:42.399Z,11.80
2023-03-03T21:33:09.112Z,12.60
2023-03-03T21:35:35.469Z,11.63
2023-03-03T21:38:01.849Z,11.50
2023-03-03T21:40:28.225Z,12.60
2023-03-03T21:42:54.820Z,11.40
2023-03-03T21:45:21.553Z,12.00
2023-03-03T21:47:48.101Z,11.88
2023-03-03T21:50:14.451Z,12.80
2023-03-03T21:52:40.787Z,13.00
2023-03-03T21:55:07.217Z,12.75
2023-03-03T21:57:33.735Z,12.95
2023-03-03T22:00:00.085Z,13.70
2023-03-03T22:02:27.233Z,12.75
2023-03-03T22:04:53.893Z,12.20
2023-03-03T22:07:20.710Z,13.98
2023-03-03T22:09:47.218Z,12.15
2023-03-03T22:12:13.594Z,12.60
2023-03-03T22:14:40.019Z,13.43
2023-03-03T22:17:06.451Z,13.82
2023-03-03T22:19:32.761Z,13.60
2023-03-03T22:21:59.740Z,13.35
2023-03-03T22:24:26.139Z,14.02
2023-03-03T22:26:52.486Z,13.52
2023-03-03T22:29:19.476Z,13.57
2023-03-03T22:31:45.973Z,12.70
2023-03-03T22:34:12.599Z,14.25
2023-03-03T22:36:38.918Z,13.98
2023-03-03T22:39:05.245Z,15.13
2023-03-03T22:41:31.659Z,13.98
2023-03-03T22:43:58.302Z,13.82
2023-03-03T22:46:24.679Z,12.98
2023-03-03T22:48:51.067Z,14.05
2023-03-03T22:51:17.344Z,13.57
2023-03-03T22:53:43.885Z,14.85
2023-03-03T22:56:10.598Z,14.45
2023-03-03T22:58:37.647Z,14.75
2023-03-03T23:01:03.995Z,12.85
2023-03-03T23:03:30.898Z,14.75
2023-03-03T23:05:57.268Z,14.85
2023-03-03T23:08:23.714Z,15.20
2023-03-03T23:10:50.067Z,15.38
2023-03-03T23:13:16.520Z,13.25
2023-03-03T23:15:42.976Z,15.93
2023-03-03T23:18:09.742Z,14.07
2023-03-03T23:20:36.067Z,16.58
2023-03-03T23:23:02.556Z,15.25
2023-03-03T23:25:28.922Z,14.95
2023-03-03T23:27:55.380Z,15.65
2023-03-03T23:30:21.787Z,16.52
2023-03-03T23:32:48.214Z,16.08
2023-03-03T23:35:14.614Z,16.20
2023-03-03T23:37:40.957Z,17.23
2023-03-03T23:40:07.252Z,17.67
2023-03-03T23:42:33.773Z,16.88
2023-03-03T23:45:00.122Z,17.25
2023-03-03T23:47:26.855Z,16.67
2023-03-03T23:49:53.134Z,15.85
2023-03-03T23:52:19.487Z,16.52
2023-03-03T23:54:46.077Z,18.20
2023-03-03T23:57:12.413Z,16.95
2023-03-03T23:59:38.930Z,17.00
